Time;durP1;ratioP1;P1;durP2;ratioP2;P2;SDS_P1;SDS_P2;PMS_P1;PMS_P2;Temp;Humidity;BMP_temperature;BMP_pressure;BME280_temperature;BME280_humidity;BME280_pressure;Samples;Min_cycle;Max_cycle;Signal;HPM_P1;HPM_P2
2022/03/01 00:02:27;;;;;;;11.37;6.73;;;;;;;;;;5090841;28;20532;-86
2022/03/01 00:05:32;;;;;;;10.27;6.63;;;;;;;;;;5102376;28;20552;-86
2022/03/01 00:08:36;;;;;;;12.67;6.93;;;;;;;;;;5090541;28;20619;-86
2022/03/01 00:11:54;;;;;;;11.40;6.77;;;;;;;;;;5090849;28;20544;-86
2022/03/01 00:15:07;;;;;;;11.70;6.60;;;;;;;;;;5104537;28;20565;-86
2022/03/01 00:18:13;;;;;;;13.73;7.47;;;;;;;;;;5090764;28;20623;-86
2022/03/01 00:21:26;;;;;;;14.87;7.63;;;;;;;;;;5103588;28;20596;-86
2022/03/01 00:24:30;;;;;;;10.93;6.17;;;;;;;;;;5101975;28;20557;-86
2022/03/01 00:27:34;;;;;;;13.33;7.70;;;;;;;;;;5090506;28;20594;-86
2022/03/01 00:30:38;;;;;;;12.77;6.30;;;;;;;;;;5102053;28;20595;-86
2022/03/01 00:33:42;;;;;;;13.67;6.63;;;;;;;;;;5090317;28;20549;-86
2022/03/01 00:36:46;;;;;;;11.73;6.30;;;;;;;;;;5090279;28;20599;-86
2022/03/01 00:39:50;;;;;;;14.47;6.70;;;;;;;;;;5114734;28;21216;-86
2022/03/01 00:42:55;;;;;;;10.83;6.40;;;;;;;;;;5102535;28;20916;-87
2022/03/01 00:46:00;;;;;;;12.43;6.63;;;;;;;;;;5090403;28;20544;-86
2022/03/01 00:49:10;;;;;;;14.17;6.70;;;;;;;;;;5102442;28;20611;-86
2022/03/01 00:52:14;;;;;;;9.77;6.00;;;;;;;;;;5090499;28;20540;-86
2022/03/01 00:55:17;;;;;;;10.37;6.47;;;;;;;;;;5101904;28;20532;-86
2022/03/01 00:58:22;;;;;;;10.87;5.97;;;;;;;;;;5090028;28;20655;-86
2022/03/01 01:01:26;;;;;;;13.63;6.03;;;;;;;;;;5090189;28;20540;-86
2022/03/01 01:04:30;;;;;;;10.30;5.83;;;;;;;;;;5103885;28;21134;-85
2022/03/01 01:07:35;;;;;;;11.67;5.77;;;;;;;;;;5094409;28;20591;-86
2022/03/01 01:10:38;;;;;;;12.47;6.13;;;;;;;;;;5093943;28;20618;-86
2022/03/01 01:13:43;;;;;;;11.37;5.60;;;;;;;;;;5093932;28;20544;-85
2022/03/01 01:16:48;;;;;;;12.77;6.03;;;;;;;;;;5093903;28;20601;-85
2022/03/01 01:19:52;;;;;;;11.47;5.67;;;;;;;;;;5105454;28;20615;-85
2022/03/01 01:22:56;;;;;;;10.10;5.70;;;;;;;;;;5105486;28;20880;-86
2022/03/01 01:26:01;;;;;;;8.27;5.37;;;;;;;;;;5117350;28;20536;-86
2022/03/01 01:29:05;;;;;;;10.77;5.20;;;;;;;;;;5093710;28;20804;-86
2022/03/01 01:32:09;;;;;;;12.03;5.60;;;;;;;;;;5105487;28;20599;-86
2022/03/01 01:35:14;;;;;;;9.47;5.10;;;;;;;;;;5093559;28;20599;-85
2022/03/01 01:38:19;;;;;;;8.87;5.17;;;;;;;;;;5105102;28;20655;-85
2022/03/01 01:41:23;;;;;;;9.43;5.60;;;;;;;;;;5117154;28;20524;-85
2022/03/01 01:44:30;;;;;;;8.73;4.93;;;;;;;;;;5093585;28;20532;-86
2022/03/01 01:47:35;;;;;;;9.47;4.70;;;;;;;;;;5093699;28;20533;-86
2022/03/01 01:50:39;;;;;;;8.77;4.87;;;;;;;;;;5105452;28;20536;-86
2022/03/01 01:53:43;;;;;;;9.53;5.50;;;;;;;;;;5093364;28;20588;-86
2022/03/01 01:56:47;;;;;;;8.57;5.37;;;;;;;;;;5093349;28;20599;-86
2022/03/01 01:59:54;;;;;;;11.47;4.77;;;;;;;;;;5104847;28;20615;-86
2022/03/01 02:02:58;;;;;;;8.60;5.30;;;;;;;;;;5092935;28;20595;-86
2022/03/01 02:06:03;;;;;;;10.73;4.87;;;;;;;;;;5104846;28;21066;-85
2022/03/01 02:09:07;;;;;;;8.13;5.10;;;;;;;;;;5092879;28;21177;-85
2022/03/01 02:12:11;;;;;;;8.70;4.63;;;;;;;;;;5116433;28;20532;-85
2022/03/01 02:15:15;;;;;;;9.77;5.20;;;;;;;;;;5104616;28;20528;-85
2022/03/01 02:18:20;;;;;;;14.50;5.83;;;;;;;;;;5092854;28;20647;-85
2022/03/01 02:21:25;;;;;;;10.03;4.87;;;;;;;;;;5092928;28;20880;-84
2022/03/01 02:24:30;;;;;;;7.00;4.93;;;;;;;;;;5094890;28;21082;-84
2022/03/01 02:27:35;;;;;;;8.90;4.60;;;;;;;;;;5094411;28;20532;-84
2022/03/01 02:30:39;;;;;;;11.00;5.07;;;;;;;;;;5106270;28;20876;-83
2022/03/01 02:33:43;;;;;;;9.83;5.33;;;;;;;;;;5094410;28;20607;-84
2022/03/01 02:36:48;;;;;;;10.50;4.63;;;;;;;;;;5106189;28;20595;-84
2022/03/01 02:39:53;;;;;;;7.77;4.60;;;;;;;;;;5094137;28;20644;-84
2022/03/01 02:42:57;;;;;;;8.73;4.97;;;;;;;;;;5105769;28;20540;-84
2022/03/01 02:46:01;;;;;;;10.13;5.63;;;;;;;;;;5093975;28;20595;-84
2022/03/01 02:49:07;;;;;;;8.97;5.20;;;;;;;;;;5093183;28;20619;-84
2022/03/01 02:52:11;;;;;;;10.90;5.03;;;;;;;;;;5105238;28;20540;-84
2022/03/01 02:55:16;;;;;;;9.73;5.07;;;;;;;;;;5093842;28;20549;-84
2022/03/01 02:58:21;;;;;;;9.73;5.70;;;;;;;;;;5105227;28;20655;-84
2022/03/01 03:01:27;;;;;;;8.90;5.00;;;;;;;;;;5107409;28;20532;-84
2022/03/01 03:04:32;;;;;;;10.80;4.93;;;;;;;;;;5096956;28;20557;-84
2022/03/01 03:07:36;;;;;;;10.17;5.30;;;;;;;;;;5107019;28;20529;-84
2022/03/01 03:10:41;;;;;;;9.13;5.17;;;;;;;;;;5096173;28;20536;-84
2022/03/01 03:13:45;;;;;;;9.23;5.17;;;;;;;;;;5093846;28;20548;-84
2022/03/01 03:16:49;;;;;;;9.23;5.40;;;;;;;;;;5106005;28;20544;-84
2022/03/01 03:19:54;;;;;;;8.87;5.03;;;;;;;;;;5094780;28;20959;-84
2022/03/01 03:22:58;;;;;;;8.63;5.00;;;;;;;;;;5094549;28;20536;-84
2022/03/01 03:26:03;;;;;;;10.83;5.43;;;;;;;;;;5104996;28;20540;-84
2022/03/01 03:29:10;;;;;;;9.53;4.60;;;;;;;;;;5105428;28;20624;-86
2022/03/01 03:32:15;;;;;;;7.07;4.53;;;;;;;;;;5093180;28;20536;-84
2022/03/01 03:35:19;;;;;;;9.40;4.63;;;;;;;;;;5105597;28;20604;-84
2022/03/01 03:38:24;;;;;;;9.50;4.70;;;;;;;;;;5093038;28;20664;-84
2022/03/01 03:41:28;;;;;;;9.23;4.70;;;;;;;;;;5104548;28;20545;-84
2022/03/01 03:44:33;;;;;;;10.00;4.90;;;;;;;;;;5093013;28;20537;-84
2022/03/01 03:47:37;;;;;;;7.57;4.93;;;;;;;;;;5104270;28;20532;-84
2022/03/01 03:50:42;;;;;;;10.10;4.80;;;;;;;;;;5105249;28;20545;-84
2022/03/01 03:53:47;;;;;;;7.77;5.07;;;;;;;;;;5092813;28;20536;-84
2022/03/01 03:56:52;;;;;;;12.70;4.60;;;;;;;;;;5104507;28;20532;-84
2022/03/01 03:59:56;;;;;;;9.47;4.90;;;;;;;;;;5104183;28;21211;-84
2022/03/01 04:03:00;;;;;;;7.43;4.60;;;;;;;;;;5116796;28;21050;-84
2022/03/01 04:06:04;;;;;;;9.33;5.00;;;;;;;;;;5092605;28;20540;-84
2022/03/01 04:09:09;;;;;;;7.20;4.67;;;;;;;;;;5092386;28;20624;-84
2022/03/01 04:12:14;;;;;;;8.23;4.40;;;;;;;;;;5093300;28;20556;-84
2022/03/01 04:15:18;;;;;;;8.10;4.50;;;;;;;;;;5102404;28;20540;-85
2022/03/01 04:18:22;;;;;;;7.40;4.67;;;;;;;;;;5090590;28;20647;-85
2022/03/01 04:21:27;;;;;;;9.63;3.93;;;;;;;;;;5102397;28;20532;-85
2022/03/01 04:24:31;;;;;;;6.67;4.03;;;;;;;;;;5102155;28;20536;-86
2022/03/01 04:27:35;;;;;;;7.27;4.40;;;;;;;;;;5090506;28;20540;-85
2022/03/01 04:30:39;;;;;;;6.37;4.20;;;;;;;;;;5090256;28;20537;-86
2022/03/01 04:33:43;;;;;;;11.03;4.60;;;;;;;;;;5090502;28;20556;-85
2022/03/01 04:36:48;;;;;;;8.30;4.47;;;;;;;;;;5102159;28;20532;-85
2022/03/01 04:39:52;;;;;;;6.10;4.23;;;;;;;;;;5089274;28;20631;-85
2022/03/01 04:42:57;;;;;;;7.70;3.97;;;;;;;;;;5101684;28;20938;-85
2022/03/01 04:46:01;;;;;;;6.50;4.50;;;;;;;;;;5103302;28;20595;-83
2022/03/01 04:49:05;;;;;;;10.57;4.90;;;;;;;;;;5114954;28;20611;-83
2022/03/01 04:52:09;;;;;;;7.20;4.37;;;;;;;;;;5115405;28;20595;-83
2022/03/01 04:55:14;;;;;;;7.50;4.57;;;;;;;;;;5102501;28;20599;-83
2022/03/01 04:58:18;;;;;;;6.67;4.47;;;;;;;;;;5090840;28;20659;-83
2022/03/01 05:01:22;;;;;;;7.40;4.43;;;;;;;;;;5101912;28;20939;-85
2022/03/01 05:04:26;;;;;;;8.10;4.47;;;;;;;;;;5091858;28;20544;-84
2022/03/01 05:07:30;;;;;;;7.63;4.77;;;;;;;;;;5091480;28;20544;-84
2022/03/01 05:10:35;;;;;;;6.33;4.27;;;;;;;;;;5090522;28;20544;-86
2022/03/01 05:13:39;;;;;;;8.57;4.73;;;;;;;;;;5090488;28;20552;-85
2022/03/01 05:16:43;;;;;;;7.97;4.63;;;;;;;;;;5102928;28;20537;-86
2022/03/01 05:19:48;;;;;;;8.63;4.90;;;;;;;;;;5090176;28;20616;-85
2022/03/01 05:22:53;;;;;;;9.70;4.83;;;;;;;;;;5090378;28;20529;-86
2022/03/01 05:25:57;;;;;;;8.07;4.80;;;;;;;;;;5113427;28;20529;-86
2022/03/01 05:29:01;;;;;;;7.60;4.70;;;;;;;;;;5106421;28;20619;-85
2022/03/01 05:32:06;;;;;;;8.70;5.07;;;;;;;;;;5115154;28;20540;-84
2022/03/01 05:35:13;;;;;;;9.10;4.95;;;;;;;;;;5095311;28;20174;-85
2022/03/01 05:38:17;;;;;;;10.77;5.40;;;;;;;;;;5094967;28;20226;-86
2022/03/01 05:41:24;;;;;;;9.93;5.27;;;;;;;;;;5094053;28;20863;-84
2022/03/01 05:44:28;;;;;;;9.97;5.20;;;;;;;;;;5097173;28;20884;-84
2022/03/01 05:47:33;;;;;;;9.87;4.57;;;;;;;;;;5101362;28;20537;-86
2022/03/01 05:50:37;;;;;;;8.30;4.63;;;;;;;;;;5106020;28;20537;-86
2022/03/01 05:53:41;;;;;;;11.53;5.53;;;;;;;;;;5093243;28;20600;-86
2022/03/01 05:56:45;;;;;;;8.60;4.80;;;;;;;;;;5095009;28;20544;-84
2022/03/01 05:59:49;;;;;;;10.07;5.60;;;;;;;;;;5097235;28;20659;-86
2022/03/01 06:02:54;;;;;;;8.27;4.90;;;;;;;;;;5093817;28;20536;-86
2022/03/01 06:05:58;;;;;;;11.27;5.33;;;;;;;;;;5104918;28;20536;-86
2022/03/01 06:09:02;;;;;;;8.07;4.93;;;;;;;;;;5093455;28;20611;-86
2022/03/01 06:12:07;;;;;;;8.23;4.60;;;;;;;;;;5107266;28;20536;-84
2022/03/01 06:15:12;;;;;;;8.90;5.28;;;;;;;;;;5097091;28;20170;-86
2022/03/01 06:18:18;;;;;;;9.57;5.60;;;;;;;;;;5104694;28;20229;-86
2022/03/01 06:21:22;;;;;;;9.23;5.93;;;;;;;;;;5104740;28;21058;-86
2022/03/01 06:24:27;;;;;;;8.00;4.93;;;;;;;;;;5093823;28;20528;-86
2022/03/01 06:27:34;;;;;;;8.40;4.80;;;;;;;;;;5097427;28;20540;-84
2022/03/01 06:30:39;;;;;;;8.00;5.40;;;;;;;;;;5095808;28;20521;-86
2022/03/01 06:33:43;;;;;;;7.13;4.80;;;;;;;;;;5093617;28;21103;-85
2022/03/01 06:36:47;;;;;;;9.93;5.43;;;;;;;;;;5092741;28;20536;-86
2022/03/01 06:39:53;;;;;;;8.90;5.17;;;;;;;;;;5094474;28;20663;-86
2022/03/01 06:42:57;;;;;;;8.33;4.83;;;;;;;;;;5096113;28;20888;-84
2022/03/01 06:46:01;;;;;;;8.90;5.17;;;;;;;;;;5105319;28;21078;-86
2022/03/01 06:49:05;;;;;;;9.27;5.33;;;;;;;;;;5104170;28;20611;-84
2022/03/01 06:52:10;;;;;;;11.23;5.23;;;;;;;;;;5095140;28;20529;-84
2022/03/01 06:55:14;;;;;;;7.43;4.73;;;;;;;;;;5094691;28;20540;-86
2022/03/01 06:58:18;;;;;;;8.17;5.30;;;;;;;;;;5117363;28;20651;-84
2022/03/01 07:01:21;;;;;;;6.83;4.73;;;;;;;;;;5115218;28;20541;-86
2022/03/01 07:04:26;;;;;;;9.87;5.37;;;;;;;;;;5115392;28;20552;-86
2022/03/01 07:07:30;;;;;;;10.17;5.07;;;;;;;;;;5091914;28;20595;-86
2022/03/01 07:10:35;;;;;;;8.73;5.10;;;;;;;;;;5091666;28;20599;-86
2022/03/01 07:13:40;;;;;;;8.30;5.30;;;;;;;;;;5094012;28;20544;-84
2022/03/01 07:16:44;;;;;;;9.20;5.27;;;;;;;;;;5094526;28;20540;-84
2022/03/01 07:19:49;;;;;;;8.10;5.03;;;;;;;;;;5093233;28;20655;-84
2022/03/01 07:22:53;;;;;;;7.80;4.63;;;;;;;;;;5094301;28;20876;-84
2022/03/01 07:25:58;;;;;;;9.07;4.83;;;;;;;;;;5105849;28;20536;-84
2022/03/01 07:29:03;;;;;;;9.57;5.10;;;;;;;;;;5103870;28;20620;-82
2022/03/01 07:32:08;;;;;;;9.53;5.10;;;;;;;;;;5093272;28;20887;-84
2022/03/01 07:35:12;;;;;;;7.60;4.67;;;;;;;;;;5103917;28;21004;-85
2022/03/01 07:38:16;;;;;;;8.63;4.80;;;;;;;;;;5103732;28;20635;-84
2022/03/01 07:41:21;;;;;;;11.70;5.20;;;;;;;;;;5115304;28;20552;-85
2022/03/01 07:44:28;;;;;;;8.03;4.70;;;;;;;;;;5116664;28;20608;-85
2022/03/01 07:47:33;;;;;;;9.17;4.80;;;;;;;;;;5092259;28;21096;-84
2022/03/01 07:50:38;;;;;;;6.87;4.77;;;;;;;;;;5091828;28;20537;-85
2022/03/01 07:53:43;;;;;;;7.57;4.43;;;;;;;;;;5103792;28;20532;-84
2022/03/01 07:56:48;;;;;;;11.90;5.07;;;;;;;;;;5092440;28;20556;-85
2022/03/01 07:59:53;;;;;;;8.43;4.73;;;;;;;;;;5092073;28;20995;-85
2022/03/01 08:02:58;;;;;;;13.03;5.53;;;;;;;;;;5091505;28;20599;-84
2022/03/01 08:06:05;;;;;;;6.87;4.40;;;;;;;;;;5092044;28;20604;-85
2022/03/01 08:09:09;;;;;;;10.17;4.87;;;;;;;;;;5091681;28;20608;-85
2022/03/01 08:12:13;;;;;;;14.57;5.27;;;;;;;;;;5091913;28;20560;-85
2022/03/01 08:15:17;;;;;;;19.53;6.40;;;;;;;;;;5092603;28;20540;-85
2022/03/01 08:18:22;;;;;;;10.60;4.90;;;;;;;;;;5091639;28;20619;-84
2022/03/01 08:21:26;;;;;;;15.37;5.40;;;;;;;;;;5103456;28;21075;-85
2022/03/01 08:24:30;;;;;;;8.87;5.40;;;;;;;;;;5114968;28;21156;-85
2022/03/01 08:27:34;;;;;;;14.37;5.33;;;;;;;;;;5102962;28;20611;-84
2022/03/01 08:30:39;;;;;;;8.63;4.57;;;;;;;;;;5103529;28;20935;-84
2022/03/01 08:33:43;;;;;;;11.00;4.60;;;;;;;;;;5102877;28;20548;-85
2022/03/01 08:36:48;;;;;;;11.87;4.77;;;;;;;;;;5091805;28;20564;-85
2022/03/01 08:39:53;;;;;;;7.73;3.93;;;;;;;;;;5091006;28;20659;-84
2022/03/01 08:42:57;;;;;;;10.97;4.63;;;;;;;;;;5090905;28;20596;-84
2022/03/01 08:46:01;;;;;;;8.67;4.40;;;;;;;;;;5102611;28;20604;-85
2022/03/01 08:49:10;;;;;;;9.63;4.10;;;;;;;;;;5102933;28;20619;-85
2022/03/01 08:52:19;;;;;;;7.23;4.63;;;;;;;;;;5102841;28;21090;-85
2022/03/01 08:55:23;;;;;;;10.77;4.63;;;;;;;;;;5102692;28;20536;-85
2022/03/01 08:58:27;;;;;;;6.83;4.50;;;;;;;;;;5102287;28;20627;-85
2022/03/01 09:01:32;;;;;;;15.50;6.30;;;;;;;;;;5090674;28;20599;-85
2022/03/01 09:04:37;;;;;;;8.13;4.50;;;;;;;;;;5018935;28;20664;-85
2022/03/01 09:07:41;;;;;;;7.60;4.40;;;;;;;;;;5045539;28;20573;-87
2022/03/01 09:10:45;;;;;;;8.50;5.17;;;;;;;;;;5068458;28;20580;-87
2022/03/01 09:13:50;;;;;;;9.40;4.83;;;;;;;;;;5073599;28;20545;-87
2022/03/01 09:16:57;;;;;;;11.47;4.70;;;;;;;;;;5076127;28;20585;-87
2022/03/01 09:20:01;;;;;;;10.57;4.77;;;;;;;;;;5060914;28;20657;-87
2022/03/01 09:23:05;;;;;;;7.90;4.60;;;;;;;;;;5049506;28;20609;-87
2022/03/01 09:26:10;;;;;;;6.43;4.40;;;;;;;;;;5064114;28;21154;-87
2022/03/01 09:29:18;;;;;;;8.40;4.97;;;;;;;;;;5064876;28;20625;-87
2022/03/01 09:32:26;;;;;;;9.83;5.03;;;;;;;;;;5064889;28;20546;-87
2022/03/01 09:35:34;;;;;;;7.53;4.90;;;;;;;;;;5071463;28;20589;-87
2022/03/01 09:38:39;;;;;;;7.13;4.83;;;;;;;;;;5055566;28;21226;-87
2022/03/01 09:41:43;;;;;;;9.07;4.83;;;;;;;;;;5065256;28;20605;-88
2022/03/01 09:44:49;;;;;;;7.17;4.50;;;;;;;;;;5053433;28;20187;-88
2022/03/01 09:47:53;;;;;;;6.60;4.80;;;;;;;;;;5064795;28;20882;-87
2022/03/01 09:51:00;;;;;;;9.17;5.00;;;;;;;;;;5053213;28;20538;-87
2022/03/01 09:54:04;;;;;;;11.23;4.53;;;;;;;;;;5063805;28;20589;-87
2022/03/01 09:57:14;;;;;;;7.53;4.90;;;;;;;;;;5065683;28;20183;-87
2022/03/01 10:00:18;;;;;;;7.80;4.77;;;;;;;;;;5068292;28;20203;-87
2022/03/01 10:03:23;;;;;;;10.80;4.70;;;;;;;;;;5072969;28;20182;-87
2022/03/01 10:06:34;;;;;;;9.80;4.57;;;;;;;;;;5083898;28;20538;-87
2022/03/01 10:09:41;;;;;;;7.47;4.70;;;;;;;;;;5084014;28;20211;-87
2022/03/01 10:12:53;;;;;;;8.10;4.00;;;;;;;;;;5075861;28;20179;-87
2022/03/01 10:16:03;;;;;;;7.03;4.13;;;;;;;;;;5072887;28;20198;-87
2022/03/01 10:19:17;;;;;;;7.23;4.47;;;;;;;;;;5084591;28;20689;-87
2022/03/01 10:22:23;;;;;;;7.23;4.50;;;;;;;;;;5069105;28;20195;-87
2022/03/01 10:25:35;;;;;;;6.80;4.03;;;;;;;;;;5072370;28;20557;-87
2022/03/01 10:28:44;;;;;;;7.17;4.13;;;;;;;;;;5064390;28;20223;-88
2022/03/01 10:31:51;;;;;;;7.37;3.90;;;;;;;;;;5064148;28;20175;-88
2022/03/01 10:34:59;;;;;;;5.43;3.63;;;;;;;;;;5052707;28;20543;-88
2022/03/01 10:38:04;;;;;;;5.10;4.00;;;;;;;;;;5071383;28;20214;-87
2022/03/01 10:41:09;;;;;;;6.00;3.90;;;;;;;;;;5072428;28;20561;-87
2022/03/01 10:44:36;;;;;;;9.03;3.67;;;;;;;;;;5082691;28;20646;-87
2022/03/01 10:47:53;;;;;;;7.43;4.20;;;;;;;;;;5063925;28;20638;-87
2022/03/01 10:51:08;;;;;;;6.33;3.87;;;;;;;;;;5071265;28;20187;-87
2022/03/01 10:54:43;;;;;;;6.87;4.13;;;;;;;;;;5063752;28;20207;-86
2022/03/01 10:57:59;;;;;;;6.27;3.87;;;;;;;;;;5063429;28;20183;-86
2022/03/01 11:01:05;;;;;;;6.30;4.60;;;;;;;;;;5074674;28;20220;-87
2022/03/01 11:04:10;;;;;;;5.70;3.97;;;;;;;;;;5075134;28;20184;-87
2022/03/01 11:07:19;;;;;;;7.07;4.50;;;;;;;;;;5056780;28;20199;-86
2022/03/01 11:10:23;;;;;;;8.03;4.60;;;;;;;;;;5070453;28;20195;-87
2022/03/01 11:13:31;;;;;;;6.87;4.33;;;;;;;;;;5071949;28;20174;-88
2022/03/01 11:17:12;;;;;;;5.83;3.83;;;;;;;;;;5076330;28;20192;-86
2022/03/01 11:20:26;;;;;;;6.80;4.20;;;;;;;;;;5062814;28;20207;-86
2022/03/01 11:23:31;;;;;;;9.60;4.17;;;;;;;;;;5074702;28;20199;-87
2022/03/01 11:26:37;;;;;;;6.20;4.20;;;;;;;;;;5081363;28;20576;-86
2022/03/01 11:29:41;;;;;;;6.20;3.80;;;;;;;;;;5071152;28;20211;-86
2022/03/01 11:32:46;;;;;;;5.20;3.73;;;;;;;;;;5083072;28;20198;-86
2022/03/01 11:35:55;;;;;;;5.20;3.63;;;;;;;;;;5081030;28;20199;-86
2022/03/01 11:39:10;;;;;;;15.57;4.30;;;;;;;;;;5066685;28;20222;-86
2022/03/01 11:42:18;;;;;;;5.57;3.77;;;;;;;;;;5058269;28;20183;-87
2022/03/01 11:45:32;;;;;;;6.87;4.00;;;;;;;;;;5061964;28;20184;-87
2022/03/01 11:48:44;;;;;;;5.73;3.80;;;;;;;;;;5061930;28;20223;-87
2022/03/01 11:51:53;;;;;;;5.03;3.57;;;;;;;;;;5054181;28;20666;-86
2022/03/01 11:54:58;;;;;;;6.17;4.37;;;;;;;;;;5055756;28;20654;-87
2022/03/01 11:58:03;;;;;;;6.13;3.87;;;;;;;;;;5072304;28;20689;-86
2022/03/01 12:01:09;;;;;;;12.83;4.10;;;;;;;;;;5061403;28;20215;-86
2022/03/01 12:04:20;;;;;;;6.20;4.07;;;;;;;;;;5068541;28;20191;-86
2022/03/01 12:07:26;;;;;;;5.40;3.83;;;;;;;;;;5082263;28;20188;-86
2022/03/01 12:10:30;;;;;;;6.13;3.80;;;;;;;;;;5060946;28;20199;-86
2022/03/01 12:13:41;;;;;;;7.23;3.77;;;;;;;;;;5051595;28;20187;-86
2022/03/01 12:16:45;;;;;;;4.97;3.07;;;;;;;;;;5074499;28;20550;-87
2022/03/01 12:20:00;;;;;;;7.87;3.53;;;;;;;;;;5061696;28;20227;-87
2022/03/01 12:23:04;;;;;;;5.20;3.70;;;;;;;;;;5051171;28;20183;-87
2022/03/01 12:26:11;;;;;;;5.70;3.43;;;;;;;;;;5068591;28;20642;-87
2022/03/01 12:29:18;;;;;;;5.20;3.93;;;;;;;;;;5052795;28;20215;-87
2022/03/01 12:32:23;;;;;;;5.37;3.40;;;;;;;;;;5073923;28;20233;-87
2022/03/01 12:35:28;;;;;;;5.93;3.60;;;;;;;;;;5093455;28;20183;-87
2022/03/01 12:38:33;;;;;;;4.53;3.70;;;;;;;;;;5067854;22;20238;-86
2022/03/01 12:41:37;;;;;;;5.87;3.70;;;;;;;;;;4980449;28;20229;-87
2022/03/01 12:44:42;;;;;;;5.27;3.80;;;;;;;;;;4955802;28;20198;-86
2022/03/01 12:47:55;;;;;;;5.97;3.87;;;;;;;;;;4964879;28;20194;-88
2022/03/01 12:51:01;;;;;;;6.47;4.03;;;;;;;;;;4965395;28;20191;-84
2022/03/01 12:54:10;;;;;;;4.93;3.43;;;;;;;;;;4959110;28;20194;-88
2022/03/01 12:57:16;;;;;;;5.37;3.70;;;;;;;;;;4963051;28;20664;-86
2022/03/01 13:00:20;;;;;;;6.07;3.67;;;;;;;;;;4957617;28;20227;-87
2022/03/01 13:03:28;;;;;;;6.30;3.67;;;;;;;;;;4942098;29;20184;-87
2022/03/01 13:06:32;;;;;;;6.90;4.10;;;;;;;;;;4951418;28;20652;-88
2022/03/01 13:09:36;;;;;;;7.17;3.57;;;;;;;;;;4968735;28;20217;-87
2022/03/01 13:12:50;;;;;;;5.33;3.67;;;;;;;;;;4976409;28;20191;-87
2022/03/01 13:16:02;;;;;;;4.67;3.60;;;;;;;;;;4962220;28;20542;-87
2022/03/01 13:19:11;;;;;;;6.63;4.00;;;;;;;;;;4930671;28;20227;-88
2022/03/01 13:22:15;;;;;;;5.87;4.37;;;;;;;;;;4953526;28;20180;-86
2022/03/01 13:25:20;;;;;;;5.37;3.77;;;;;;;;;;4960055;28;20191;-86
2022/03/01 13:28:32;;;;;;;5.50;3.67;;;;;;;;;;4942982;28;20191;-87
2022/03/01 13:31:37;;;;;;;8.00;3.97;;;;;;;;;;4922671;29;20180;-86
2022/03/01 13:34:43;;;;;;;5.47;3.83;;;;;;;;;;4948676;28;20198;-87
2022/03/01 13:37:48;;;;;;;6.47;4.63;;;;;;;;;;4956283;28;20199;-88
2022/03/01 13:40:52;;;;;;;8.57;3.80;;;;;;;;;;4950807;28;20214;-87
2022/03/01 13:44:08;;;;;;;7.50;3.73;;;;;;;;;;4947025;28;20561;-87
2022/03/01 13:47:19;;;;;;;6.07;3.90;;;;;;;;;;4931705;28;20204;-87
2022/03/01 13:50:24;;;;;;;6.03;3.90;;;;;;;;;;4943096;29;20219;-86
2022/03/01 13:53:28;;;;;;;5.03;3.97;;;;;;;;;;4953943;29;20176;-86
2022/03/01 13:56:32;;;;;;;6.07;3.57;;;;;;;;;;4957384;28;20195;-87
2022/03/01 13:59:36;;;;;;;5.47;3.37;;;;;;;;;;4960693;28;20227;-87
2022/03/01 14:02:51;;;;;;;5.13;3.40;;;;;;;;;;4952581;28;20191;-87
2022/03/01 14:05:58;;;;;;;3.53;3.07;;;;;;;;;;4943382;28;20200;-86
2022/03/01 14:09:02;;;;;;;4.73;3.70;;;;;;;;;;4949555;28;20704;-87
2022/03/01 14:12:07;;;;;;;5.23;3.30;;;;;;;;;;4947762;28;20187;-86
2022/03/01 14:15:11;;;;;;;4.13;3.03;;;;;;;;;;4954203;28;20182;-85
2022/03/01 14:18:17;;;;;;;4.27;2.87;;;;;;;;;;4987153;28;20179;-87
2022/03/01 14:21:25;;;;;;;4.30;3.00;;;;;;;;;;4964700;28;20211;-87
2022/03/01 14:24:29;;;;;;;4.17;3.10;;;;;;;;;;4955557;28;20187;-87
2022/03/01 14:27:34;;;;;;;5.00;3.13;;;;;;;;;;4978332;28;20179;-86
2022/03/01 14:30:38;;;;;;;5.13;3.30;;;;;;;;;;4965539;28;20649;-86
2022/03/01 14:33:43;;;;;;;8.63;4.33;;;;;;;;;;4964026;28;20199;-86
2022/03/01 14:36:47;;;;;;;6.73;3.10;;;;;;;;;;4952716;28;20194;-86
2022/03/01 14:39:51;;;;;;;5.13;3.10;;;;;;;;;;4965453;28;20230;-86
2022/03/01 14:42:55;;;;;;;6.63;3.03;;;;;;;;;;4966216;28;20171;-85
2022/03/01 14:45:59;;;;;;;4.73;3.10;;;;;;;;;;4964159;28;20187;-85
2022/03/01 14:49:03;;;;;;;2.80;2.50;;;;;;;;;;4965366;28;20580;-85
2022/03/01 14:52:09;;;;;;;3.43;2.50;;;;;;;;;;4952876;28;20560;-86
2022/03/01 14:55:14;;;;;;;4.13;2.30;;;;;;;;;;4976634;28;20187;-86
2022/03/01 14:58:19;;;;;;;4.23;3.23;;;;;;;;;;4954300;28;20542;-86
2022/03/01 15:01:23;;;;;;;6.73;3.30;;;;;;;;;;4965836;28;20214;-87
2022/03/01 15:04:27;;;;;;;3.93;2.70;;;;;;;;;;4953381;28;20565;-87
2022/03/01 15:07:31;;;;;;;3.90;3.27;;;;;;;;;;4953421;28;20657;-86
2022/03/01 15:10:36;;;;;;;8.50;3.37;;;;;;;;;;4964137;28;20190;-86
2022/03/01 15:13:41;;;;;;;5.37;3.60;;;;;;;;;;4953790;28;20194;-86
2022/03/01 15:16:45;;;;;;;5.90;3.30;;;;;;;;;;4964547;28;20188;-86
2022/03/01 15:19:49;;;;;;;5.00;3.33;;;;;;;;;;4952976;28;20214;-86
2022/03/01 15:22:54;;;;;;;4.77;3.53;;;;;;;;;;4974461;28;20179;-85
2022/03/01 15:25:58;;;;;;;7.27;3.50;;;;;;;;;;4964345;28;20183;-85
2022/03/01 15:29:05;;;;;;;5.53;3.57;;;;;;;;;;4952285;28;20215;-85
2022/03/01 15:32:09;;;;;;;7.03;3.57;;;;;;;;;;4941995;28;20183;-86
2022/03/01 15:35:14;;;;;;;5.93;3.60;;;;;;;;;;4963802;28;20523;-85
2022/03/01 15:38:18;;;;;;;3.63;2.80;;;;;;;;;;4951972;28;20207;-85
2022/03/01 15:41:22;;;;;;;4.70;3.33;;;;;;;;;;4962078;28;20215;-85
2022/03/01 15:44:27;;;;;;;4.13;3.33;;;;;;;;;;4961589;28;20183;-86
2022/03/01 15:47:30;;;;;;;3.97;2.87;;;;;;;;;;4961464;28;20541;-86
2022/03/01 15:50:35;;;;;;;5.17;3.40;;;;;;;;;;4972708;28;20183;-85
2022/03/01 15:53:39;;;;;;;4.60;3.40;;;;;;;;;;4973637;28;20649;-86
2022/03/01 15:56:43;;;;;;;9.90;3.60;;;;;;;;;;4983617;28;20191;-86
2022/03/01 15:59:47;;;;;;;6.97;3.10;;;;;;;;;;4961093;28;20585;-85
2022/03/01 16:02:52;;;;;;;4.63;3.10;;;;;;;;;;4950644;28;20207;-86
2022/03/01 16:05:55;;;;;;;4.50;3.23;;;;;;;;;;4985231;28;20193;-86
2022/03/01 16:09:01;;;;;;;3.90;3.10;;;;;;;;;;4945356;28;20680;-86
2022/03/01 16:12:05;;;;;;;4.50;3.00;;;;;;;;;;4969666;28;20190;-84
2022/03/01 16:15:10;;;;;;;4.50;3.03;;;;;;;;;;4955579;28;20187;-90
2022/03/01 16:18:14;;;;;;;7.77;3.63;;;;;;;;;;4956228;28;20664;-88
2022/03/01 16:21:18;;;;;;;3.33;2.73;;;;;;;;;;4957265;28;20684;-86
2022/03/01 16:24:23;;;;;;;4.20;2.90;;;;;;;;;;4957933;28;20190;-87
2022/03/01 16:27:27;;;;;;;3.90;2.77;;;;;;;;;;4945046;28;20196;-88
2022/03/01 16:30:31;;;;;;;5.30;2.97;;;;;;;;;;4949747;28;20689;-87
2022/03/01 16:33:35;;;;;;;4.00;3.37;;;;;;;;;;4996714;28;20191;-87
2022/03/01 16:36:39;;;;;;;4.77;3.00;;;;;;;;;;4943937;28;20641;-87
2022/03/01 16:39:43;;;;;;;5.47;3.00;;;;;;;;;;4944141;28;20230;-87
2022/03/01 16:42:47;;;;;;;5.40;2.87;;;;;;;;;;4939881;28;20222;-87
2022/03/01 16:45:52;;;;;;;5.83;3.20;;;;;;;;;;4957233;28;20220;-87
2022/03/01 16:48:57;;;;;;;5.80;3.57;;;;;;;;;;4956105;28;20221;-87
2022/03/01 16:52:03;;;;;;;4.37;3.20;;;;;;;;;;4952429;28;20649;-87
2022/03/01 16:55:09;;;;;;;4.53;3.07;;;;;;;;;;4952466;28;20190;-88
2022/03/01 16:58:13;;;;;;;3.90;2.77;;;;;;;;;;4948692;28;20195;-89
2022/03/01 17:01:17;;;;;;;5.10;2.90;;;;;;;;;;4936146;28;20573;-87
2022/03/01 17:04:22;;;;;;;4.37;3.17;;;;;;;;;;4957748;28;20629;-87
2022/03/01 17:07:26;;;;;;;3.37;2.57;;;;;;;;;;4958717;28;20197;-88
2022/03/01 17:10:30;;;;;;;5.73;2.83;;;;;;;;;;4957307;28;20565;-87
2022/03/01 17:13:35;;;;;;;5.27;2.60;;;;;;;;;;4948909;28;20191;-89
2022/03/01 17:16:40;;;;;;;8.47;3.20;;;;;;;;;;4949320;28;20186;-88
2022/03/01 17:19:44;;;;;;;5.17;3.20;;;;;;;;;;4949960;28;20223;-88
2022/03/01 17:22:48;;;;;;;5.37;2.80;;;;;;;;;;4938844;28;20214;-88
2022/03/01 17:25:52;;;;;;;5.40;3.10;;;;;;;;;;4940089;28;20586;-88
2022/03/01 17:28:56;;;;;;;4.73;2.53;;;;;;;;;;4957085;28;20625;-88
2022/03/01 17:32:03;;;;;;;4.57;2.80;;;;;;;;;;4949890;28;20591;-88
2022/03/01 17:35:08;;;;;;;4.17;2.57;;;;;;;;;;4948649;28;20634;-87
2022/03/01 17:38:12;;;;;;;5.77;3.20;;;;;;;;;;4980941;28;20622;-87
2022/03/01 17:41:16;;;;;;;5.23;2.90;;;;;;;;;;4957387;28;20938;-88
2022/03/01 17:44:21;;;;;;;4.90;2.97;;;;;;;;;;4959079;28;20587;-88
2022/03/01 17:47:25;;;;;;;5.20;2.90;;;;;;;;;;4941023;28;20547;-88
2022/03/01 17:50:30;;;;;;;3.87;2.70;;;;;;;;;;4941732;28;20645;-87
2022/03/01 17:53:34;;;;;;;4.83;3.50;;;;;;;;;;4970410;28;20940;-87
2022/03/01 17:56:38;;;;;;;4.73;2.70;;;;;;;;;;4949856;28;20590;-87
2022/03/01 17:59:42;;;;;;;4.40;2.90;;;;;;;;;;4955061;28;20625;-87
2022/03/01 18:02:46;;;;;;;4.57;2.90;;;;;;;;;;4957397;28;20622;-88
2022/03/01 18:05:51;;;;;;;7.03;2.83;;;;;;;;;;4963554;28;20897;-88
2022/03/01 18:08:55;;;;;;;4.83;2.70;;;;;;;;;;4942084;28;21195;-87
2022/03/01 18:11:59;;;;;;;3.70;2.63;;;;;;;;;;4927416;28;20642;-87
2022/03/01 18:15:05;;;;;;;8.70;2.93;;;;;;;;;;4932188;29;20614;-87
2022/03/01 18:18:09;;;;;;;5.77;2.93;;;;;;;;;;4953946;28;20591;-86
2022/03/01 18:21:14;;;;;;;5.17;3.07;;;;;;;;;;4943173;29;20599;-87
2022/03/01 18:24:18;;;;;;;4.40;3.03;;;;;;;;;;4954246;29;20543;-87
2022/03/01 18:27:22;;;;;;;4.23;3.47;;;;;;;;;;4982424;28;20570;-87
2022/03/01 18:30:28;;;;;;;5.63;3.43;;;;;;;;;;4984616;28;20643;-87